LFATEGGW

Guest
Details From LFAT - Le Touquet Paris Plage
To EGGW - London Luton
Flight Number -
Tags Real Decoded
Created
Modified
Stats Distance 160 nm / 296 km
Max Altitude 0 ft / 0 m
Waypoints 5
Social Downloads 3
Likes 0
Share VATSIM

Download

Looking for another format? Having issues loading an existing format? Contact us
Advertisement - Login to hide

Notes

Decoded

Route

LFAT SFD GWC WOD EGGW

ID Type Via Altitude Latitude Longitude Leg Dist Tot Dist Heading (true) Name
O LFAT APT - 0 ft / 0 m 50.52398˚ 1.61247˚ - 0 nm - -
SFD VOR - 0 ft / 0 m 50.76056˚ 0.12194˚ 58 nm 58 nm 285° / 283° SEAFORD VOR-DME
GWC VOR - 0 ft / 0 m 50.85528˚ -0.75667˚ 33 nm 92 nm 280° / 279° GOODWOOD VOR-DME
WOD NDB - 0 ft / 0 m 51.45278˚ -0.87889˚ 36 nm 128 nm 353° / 353° WOODLEY NDB
O EGGW APT - 0 ft / 0 m 51.87202˚ -0.38355˚ 31 nm 159 nm 36° / 36° -

Altitude Profile

Advertisement - Login to hide

LFAT

Details ICAO LFAT (LTQ)
Name Le Touquet Paris Plage
Region France
Timezone Europe/Paris (UTC+2.0)
Stats Elevation 35 ft / 11 m (AMSL)
Location 50.515857° 1.622729°
Runways 2
Magnetic Variation 0.295° E

METAR

LFAT 201630Z AUTO 03010KT 360V070 CAVOK 20/13 Q1019 NOSIG

Decode

TAF

Not found

Departure Runways

ID Width Length Bearing (true) Bearing (mag) Surface Threshold Offset Overrun Length
07 120 ft / 37 m 1,949 ft / 594 m 60.65° 60.35° Asphalt 0 ft / 0 m 0 ft / 0 m
14 131 ft / 40 m 6,050 ft / 1,844 m 133.54° 133.24° Asphalt 0 ft / 0 m 0 ft / 0 m
25 120 ft / 37 m 1,949 ft / 594 m 240.65° 240.35° Asphalt 750 ft / 229 m 0 ft / 0 m
32 131 ft / 40 m 6,050 ft / 1,844 m 313.56° 313.26° Asphalt 492 ft / 150 m 0 ft / 0 m

EGGW

Details ICAO EGGW (LTN)
Name London Luton
Region United Kingdom
Timezone Europe/London (UTC+1.0)
Stats Elevation 526 ft / 160 m (AMSL)
Location 51.874629° -0.368450°
Runways 1
Magnetic Variation 0.509° W

METAR

EGGW 201620Z AUTO 12006KT 9999 NCD 19/09 Q1020

Decode

TAF

TAF EGGW 201100Z 2012/2112 12006KT 9999 FEW035 BECMG 2022/2101 6000 TEMPO 2101/2108 2500 BR BKN002 PROB30 2102/2107 0300 FG OVC000 BECMG 2107/2110 9999

Decode

Destination Runways

ID Width Length Bearing (true) Bearing (mag) Surface Threshold Offset Overrun Length
08 151 ft / 46 m 7,066 ft / 2,154 m 74.35° 74.86° Asphalt 0 ft / 0 m 200 ft / 61 m
26 151 ft / 46 m 7,066 ft / 2,154 m 254.38° 254.89° Asphalt 272 ft / 83 m 0 ft / 0 m

Approach Navaids

Runway Type Ident Frequency Range Bearing (true) Bearing (mag) Slope Elevation
08 Localiser ILTN 109.15 MHz 18 nm / 33 km 74.37° 74.88° - 526 ft / 160 m (AMSL)
08 Glidescope ILTN 109.15 MHz 10 nm / 19 km 74.36° 74.87° 3.00° 526 ft / 160 m (AMSL)
08 DME ILTN 109.15 MHz 18 nm / 33 km - - - 549 ft / 167 m (AMSL)
26 Localiser ILJ 109.15 MHz 18 nm / 33 km 254.35° 254.86° - 526 ft / 160 m (AMSL)
26 Glidescope ILJ 109.15 MHz 10 nm / 19 km 254.36° 254.87° 3.00° 526 ft / 160 m (AMSL)
26 DME ILJ 109.15 MHz 18 nm / 33 km - - - 549 ft / 167 m (AMSL)